sensor_id;sensor_type;location;lat;lon;timestamp;P1;durP1;ratioP1;P2;durP2;ratioP2
14001;SDS011;7076;51.280;12.584;2024-02-15T00:03:39;1.80;;;1.70;;
14001;SDS011;7076;51.280;12.584;2024-02-15T00:08:44;2.00;;;1.90;;
14001;SDS011;7076;51.280;12.584;2024-02-15T00:13:46;2.35;;;1.95;;
14001;SDS011;7076;51.280;12.584;2024-02-15T00:18:49;2.13;;;1.70;;
14001;SDS011;7076;51.280;12.584;2024-02-15T00:23:54;2.78;;;1.67;;
14001;SDS011;7076;51.280;12.584;2024-02-15T00:28:58;1.90;;;1.60;;
14001;SDS011;7076;51.280;12.584;2024-02-15T00:34:02;2.63;;;1.70;;
14001;SDS011;7076;51.280;12.584;2024-02-15T00:39:07;1.65;;;1.55;;
14001;SDS011;7076;51.280;12.584;2024-02-15T00:44:10;1.63;;;1.40;;
14001;SDS011;7076;51.280;12.584;2024-02-15T00:49:13;1.33;;;1.23;;
14001;SDS011;7076;51.280;12.584;2024-02-15T00:54:17;1.50;;;1.40;;
14001;SDS011;7076;51.280;12.584;2024-02-15T00:59:20;1.50;;;1.40;;
14001;SDS011;7076;51.280;12.584;2024-02-15T01:04:23;1.70;;;1.40;;
14001;SDS011;7076;51.280;12.584;2024-02-15T01:09:27;2.03;;;1.50;;
14001;SDS011;7076;51.280;12.584;2024-02-15T01:14:30;1.50;;;1.40;;
14001;SDS011;7076;51.280;12.584;2024-02-15T01:19:33;2.00;;;1.35;;
14001;SDS011;7076;51.280;12.584;2024-02-15T01:24:37;1.67;;;1.52;;
14001;SDS011;7076;51.280;12.584;2024-02-15T01:29:40;1.50;;;1.35;;
14001;SDS011;7076;51.280;12.584;2024-02-15T01:34:44;1.50;;;1.40;;
14001;SDS011;7076;51.280;12.584;2024-02-15T01:39:48;1.50;;;1.40;;
14001;SDS011;7076;51.280;12.584;2024-02-15T01:44:52;1.30;;;1.20;;
14001;SDS011;7076;51.280;12.584;2024-02-15T01:49:55;1.42;;;1.30;;
14001;SDS011;7076;51.280;12.584;2024-02-15T01:55:00;1.30;;;1.20;;
14001;SDS011;7076;51.280;12.584;2024-02-15T02:00:10;1.45;;;1.17;;
14001;SDS011;7076;51.280;12.584;2024-02-15T02:05:14;1.45;;;1.35;;
14001;SDS011;7076;51.280;12.584;2024-02-15T02:10:18;1.20;;;1.10;;
14001;SDS011;7076;51.280;12.584;2024-02-15T02:15:22;1.10;;;1.00;;
14001;SDS011;7076;51.280;12.584;2024-02-15T02:20:25;1.25;;;1.15;;
14001;SDS011;7076;51.280;12.584;2024-02-15T02:25:30;1.30;;;1.20;;
14001;SDS011;7076;51.280;12.584;2024-02-15T02:30:33;1.00;;;1.00;;
14001;SDS011;7076;51.280;12.584;2024-02-15T02:35:36;1.42;;;1.30;;
14001;SDS011;7076;51.280;12.584;2024-02-15T02:40:40;1.38;;;1.27;;
14001;SDS011;7076;51.280;12.584;2024-02-15T02:45:43;1.23;;;1.13;;
14001;SDS011;7076;51.280;12.584;2024-02-15T02:50:46;1.20;;;1.10;;
14001;SDS011;7076;51.280;12.584;2024-02-15T02:55:51;0.80;;;0.80;;
14001;SDS011;7076;51.280;12.584;2024-02-15T03:00:54;1.15;;;1.05;;
14001;SDS011;7076;51.280;12.584;2024-02-15T03:05:59;0.90;;;0.90;;
14001;SDS011;7076;51.280;12.584;2024-02-15T03:11:04;1.02;;;0.93;;
14001;SDS011;7076;51.280;12.584;2024-02-15T03:16:07;1.50;;;0.75;;
14001;SDS011;7076;51.280;12.584;2024-02-15T03:21:10;1.00;;;0.90;;
14001;SDS011;7076;51.280;12.584;2024-02-15T03:26:14;1.30;;;1.00;;
14001;SDS011;7076;51.280;12.584;2024-02-15T03:31:17;0.75;;;0.75;;
14001;SDS011;7076;51.280;12.584;2024-02-15T03:36:21;0.80;;;0.80;;
14001;SDS011;7076;51.280;12.584;2024-02-15T03:41:28;1.17;;;0.90;;
14001;SDS011;7076;51.280;12.584;2024-02-15T03:46:34;0.80;;;0.80;;
14001;SDS011;7076;51.280;12.584;2024-02-15T03:51:37;0.93;;;0.93;;
14001;SDS011;7076;51.280;12.584;2024-02-15T03:56:47;0.70;;;0.70;;
14001;SDS011;7076;51.280;12.584;2024-02-15T04:01:53;0.88;;;0.88;;
14001;SDS011;7076;51.280;12.584;2024-02-15T04:06:56;0.60;;;0.60;;
14001;SDS011;7076;51.280;12.584;2024-02-15T04:12:01;0.63;;;0.63;;
14001;SDS011;7076;51.280;12.584;2024-02-15T04:17:04;1.05;;;0.93;;
14001;SDS011;7076;51.280;12.584;2024-02-15T04:22:07;1.08;;;1.00;;
14001;SDS011;7076;51.280;12.584;2024-02-15T04:27:11;1.23;;;1.00;;
14001;SDS011;7076;51.280;12.584;2024-02-15T04:32:15;0.85;;;0.85;;
14001;SDS011;7076;51.280;12.584;2024-02-15T04:37:20;0.80;;;0.80;;
14001;SDS011;7076;51.280;12.584;2024-02-15T04:42:25;1.05;;;1.00;;
14001;SDS011;7076;51.280;12.584;2024-02-15T04:47:29;0.82;;;0.82;;
14001;SDS011;7076;51.280;12.584;2024-02-15T04:52:32;0.85;;;0.85;;
14001;SDS011;7076;51.280;12.584;2024-02-15T04:57:37;2.10;;;1.20;;
14001;SDS011;7076;51.280;12.584;2024-02-15T05:02:42;1.30;;;1.15;;
14001;SDS011;7076;51.280;12.584;2024-02-15T05:07:46;1.08;;;1.05;;
14001;SDS011;7076;51.280;12.584;2024-02-15T05:12:52;1.10;;;1.00;;
14001;SDS011;7076;51.280;12.584;2024-02-15T05:17:55;0.90;;;0.90;;
14001;SDS011;7076;51.280;12.584;2024-02-15T05:22:58;1.05;;;0.95;;
14001;SDS011;7076;51.280;12.584;2024-02-15T05:28:03;1.40;;;1.25;;
14001;SDS011;7076;51.280;12.584;2024-02-15T05:33:07;1.33;;;1.13;;
14001;SDS011;7076;51.280;12.584;2024-02-15T05:38:12;1.20;;;1.10;;
14001;SDS011;7076;51.280;12.584;2024-02-15T05:43:18;1.27;;;1.17;;
14001;SDS011;7076;51.280;12.584;2024-02-15T05:48:21;1.33;;;1.15;;
14001;SDS011;7076;51.280;12.584;2024-02-15T05:53:24;1.00;;;0.90;;
14001;SDS011;7076;51.280;12.584;2024-02-15T05:58:28;1.52;;;1.13;;
14001;SDS011;7076;51.280;12.584;2024-02-15T06:03:32;1.02;;;0.98;;
14001;SDS011;7076;51.280;12.584;2024-02-15T06:08:35;1.15;;;0.93;;
14001;SDS011;7076;51.280;12.584;2024-02-15T06:13:40;1.58;;;1.02;;
14001;SDS011;7076;51.280;12.584;2024-02-15T06:18:43;2.78;;;1.10;;
14001;SDS011;7076;51.280;12.584;2024-02-15T06:23:46;1.23;;;1.13;;
14001;SDS011;7076;51.280;12.584;2024-02-15T06:28:54;0.85;;;0.82;;
14001;SDS011;7076;51.280;12.584;2024-02-15T06:34:14;1.83;;;0.90;;
14001;SDS011;7076;51.280;12.584;2024-02-15T06:39:43;0.90;;;0.80;;
14001;SDS011;7076;51.280;12.584;2024-02-15T06:44:48;1.08;;;1.08;;
14001;SDS011;7076;51.280;12.584;2024-02-15T06:49:51;1.40;;;1.30;;
14001;SDS011;7076;51.280;12.584;2024-02-15T06:54:55;1.33;;;1.23;;
14001;SDS011;7076;51.280;12.584;2024-02-15T06:59:59;1.48;;;1.30;;
14001;SDS011;7076;51.280;12.584;2024-02-15T07:05:03;1.30;;;1.20;;
14001;SDS011;7076;51.280;12.584;2024-02-15T07:10:07;2.08;;;1.20;;
14001;SDS011;7076;51.280;12.584;2024-02-15T07:15:12;1.23;;;1.13;;
14001;SDS011;7076;51.280;12.584;2024-02-15T07:20:16;1.83;;;1.27;;
14001;SDS011;7076;51.280;12.584;2024-02-15T07:25:19;1.40;;;1.30;;
14001;SDS011;7076;51.280;12.584;2024-02-15T07:30:23;1.65;;;1.48;;
14001;SDS011;7076;51.280;12.584;2024-02-15T07:35:27;1.45;;;1.35;;
14001;SDS011;7076;51.280;12.584;2024-02-15T07:40:32;1.50;;;1.40;;
14001;SDS011;7076;51.280;12.584;2024-02-15T07:45:36;1.50;;;1.40;;
14001;SDS011;7076;51.280;12.584;2024-02-15T07:50:39;2.28;;;1.60;;
14001;SDS011;7076;51.280;12.584;2024-02-15T07:55:45;1.33;;;1.23;;
14001;SDS011;7076;51.280;12.584;2024-02-15T08:00:49;1.80;;;1.55;;
14001;SDS011;7076;51.280;12.584;2024-02-15T08:05:52;1.40;;;1.30;;
14001;SDS011;7076;51.280;12.584;2024-02-15T08:10:55;2.22;;;1.40;;
14001;SDS011;7076;51.280;12.584;2024-02-15T08:15:59;2.00;;;1.80;;
14001;SDS011;7076;51.280;12.584;2024-02-15T08:21:02;1.50;;;1.40;;
14001;SDS011;7076;51.280;12.584;2024-02-15T08:26:06;3.50;;;2.30;;
14001;SDS011;7076;51.280;12.584;2024-02-15T08:31:10;2.08;;;1.77;;
14001;SDS011;7076;51.280;12.584;2024-02-15T08:36:16;1.77;;;1.65;;
14001;SDS011;7076;51.280;12.584;2024-02-15T08:41:20;1.65;;;1.55;;
14001;SDS011;7076;51.280;12.584;2024-02-15T08:46:26;2.00;;;1.80;;
14001;SDS011;7076;51.280;12.584;2024-02-15T08:51:29;3.45;;;2.05;;
14001;SDS011;7076;51.280;12.584;2024-02-15T08:56:34;2.13;;;1.88;;
14001;SDS011;7076;51.280;12.584;2024-02-15T09:01:39;3.10;;;2.10;;
14001;SDS011;7076;51.280;12.584;2024-02-15T09:06:42;2.38;;;2.17;;
14001;SDS011;7076;51.280;12.584;2024-02-15T09:11:45;2.47;;;1.92;;
14001;SDS011;7076;51.280;12.584;2024-02-15T09:16:50;2.42;;;1.80;;
14001;SDS011;7076;51.280;12.584;2024-02-15T09:21:52;2.95;;;1.90;;
14001;SDS011;7076;51.280;12.584;2024-02-15T09:26:56;4.13;;;3.05;;
14001;SDS011;7076;51.280;12.584;2024-02-15T09:32:00;2.30;;;2.10;;
14001;SDS011;7076;51.280;12.584;2024-02-15T09:37:03;2.65;;;2.40;;
14001;SDS011;7076;51.280;12.584;2024-02-15T09:42:06;4.38;;;2.70;;
14001;SDS011;7076;51.280;12.584;2024-02-15T09:47:11;3.35;;;2.40;;
14001;SDS011;7076;51.280;12.584;2024-02-15T09:52:14;2.67;;;2.47;;
14001;SDS011;7076;51.280;12.584;2024-02-15T09:57:19;2.47;;;2.28;;
14001;SDS011;7076;51.280;12.584;2024-02-15T10:02:23;2.28;;;2.08;;
14001;SDS011;7076;51.280;12.584;2024-02-15T10:07:27;2.65;;;2.05;;
14001;SDS011;7076;51.280;12.584;2024-02-15T10:12:36;2.53;;;1.92;;
14001;SDS011;7076;51.280;12.584;2024-02-15T10:17:41;1.73;;;1.63;;
14001;SDS011;7076;51.280;12.584;2024-02-15T10:22:44;2.35;;;1.65;;
14001;SDS011;7076;51.280;12.584;2024-02-15T10:27:46;5.65;;;1.50;;
14001;SDS011;7076;51.280;12.584;2024-02-15T10:32:51;1.45;;;1.35;;
14001;SDS011;7076;51.280;12.584;2024-02-15T10:38:05;2.40;;;1.63;;
14001;SDS011;7076;51.280;12.584;2024-02-15T10:43:10;3.65;;;1.58;;
14001;SDS011;7076;51.280;12.584;2024-02-15T10:48:16;1.65;;;1.55;;
14001;SDS011;7076;51.280;12.584;2024-02-15T10:53:21;1.70;;;1.50;;
14001;SDS011;7076;51.280;12.584;2024-02-15T10:58:25;2.25;;;1.20;;
14001;SDS011;7076;51.280;12.584;2024-02-15T11:03:33;3.50;;;1.20;;
14001;SDS011;7076;51.280;12.584;2024-02-15T11:08:38;2.22;;;1.45;;
14001;SDS011;7076;51.280;12.584;2024-02-15T11:13:42;1.95;;;1.35;;
14001;SDS011;7076;51.280;12.584;2024-02-15T11:18:47;1.85;;;1.40;;
14001;SDS011;7076;51.280;12.584;2024-02-15T11:23:53;2.85;;;1.70;;
14001;SDS011;7076;51.280;12.584;2024-02-15T11:28:56;2.47;;;2.00;;
14001;SDS011;7076;51.280;12.584;2024-02-15T11:34:01;3.22;;;1.25;;
14001;SDS011;7076;51.280;12.584;2024-02-15T11:39:42;1.50;;;1.40;;
14001;SDS011;7076;51.280;12.584;2024-02-15T11:44:45;1.55;;;1.45;;
14001;SDS011;7076;51.280;12.584;2024-02-15T11:49:49;2.95;;;1.23;;
14001;SDS011;7076;51.280;12.584;2024-02-15T11:55:03;3.58;;;1.52;;
14001;SDS011;7076;51.280;12.584;2024-02-15T12:00:09;1.20;;;1.10;;
14001;SDS011;7076;51.280;12.584;2024-02-15T12:05:37;2.03;;;1.52;;
14001;SDS011;7076;51.280;12.584;2024-02-15T12:10:59;3.10;;;1.70;;
14001;SDS011;7076;51.280;12.584;2024-02-15T12:16:20;1.40;;;1.30;;
14001;SDS011;7076;51.280;12.584;2024-02-15T12:21:42;1.60;;;1.50;;
14001;SDS011;7076;51.280;12.584;2024-02-15T12:26:44;3.08;;;1.65;;
14001;SDS011;7076;51.280;12.584;2024-02-15T12:31:48;2.03;;;1.58;;
14001;SDS011;7076;51.280;12.584;2024-02-15T12:37:04;3.13;;;1.58;;
14001;SDS011;7076;51.280;12.584;2024-02-15T12:42:08;1.75;;;1.63;;
14001;SDS011;7076;51.280;12.584;2024-02-15T12:47:18;2.53;;;1.60;;
14001;SDS011;7076;51.280;12.584;2024-02-15T12:52:37;1.83;;;1.30;;
14001;SDS011;7076;51.280;12.584;2024-02-15T12:57:41;2.03;;;1.25;;
14001;SDS011;7076;51.280;12.584;2024-02-15T13:02:46;1.55;;;1.20;;
14001;SDS011;7076;51.280;12.584;2024-02-15T13:07:53;2.30;;;1.20;;
14001;SDS011;7076;51.280;12.584;2024-02-15T13:12:57;2.92;;;1.20;;
14001;SDS011;7076;51.280;12.584;2024-02-15T13:18:00;1.48;;;1.15;;
14001;SDS011;7076;51.280;12.584;2024-02-15T13:23:08;1.50;;;1.40;;
14001;SDS011;7076;51.280;12.584;2024-02-15T13:28:16;1.52;;;1.42;;
14001;SDS011;7076;51.280;12.584;2024-02-15T13:33:20;2.28;;;1.10;;
14001;SDS011;7076;51.280;12.584;2024-02-15T13:38:25;1.48;;;1.38;;
14001;SDS011;7076;51.280;12.584;2024-02-15T13:43:29;1.23;;;1.00;;
14001;SDS011;7076;51.280;12.584;2024-02-15T13:48:33;2.05;;;1.67;;
14001;SDS011;7076;51.280;12.584;2024-02-15T13:53:38;2.33;;;1.70;;
14001;SDS011;7076;51.280;12.584;2024-02-15T13:58:41;2.22;;;1.52;;
14001;SDS011;7076;51.280;12.584;2024-02-15T14:03:43;1.75;;;1.60;;
14001;SDS011;7076;51.280;12.584;2024-02-15T14:08:48;2.25;;;1.88;;
14001;SDS011;7076;51.280;12.584;2024-02-15T14:13:52;1.52;;;1.25;;
14001;SDS011;7076;51.280;12.584;2024-02-15T14:18:59;1.00;;;0.95;;
14001;SDS011;7076;51.280;12.584;2024-02-15T14:24:07;1.80;;;1.00;;
14001;SDS011;7076;51.280;12.584;2024-02-15T14:29:10;0.80;;;0.80;;
14001;SDS011;7076;51.280;12.584;2024-02-15T14:34:15;0.95;;;0.82;;
14001;SDS011;7076;51.280;12.584;2024-02-15T14:39:23;1.00;;;0.90;;
14001;SDS011;7076;51.280;12.584;2024-02-15T14:44:26;1.10;;;1.00;;
14001;SDS011;7076;51.280;12.584;2024-02-15T14:49:29;1.20;;;0.90;;
14001;SDS011;7076;51.280;12.584;2024-02-15T14:54:33;2.75;;;1.08;;
14001;SDS011;7076;51.280;12.584;2024-02-15T14:59:37;1.77;;;0.75;;
14001;SDS011;7076;51.280;12.584;2024-02-15T15:04:42;1.45;;;0.95;;
14001;SDS011;7076;51.280;12.584;2024-02-15T15:10:11;3.28;;;1.98;;
14001;SDS011;7076;51.280;12.584;2024-02-15T15:15:30;0.80;;;0.80;;
14001;SDS011;7076;51.280;12.584;2024-02-15T15:20:33;0.90;;;0.90;;
14001;SDS011;7076;51.280;12.584;2024-02-15T15:25:40;1.33;;;1.17;;
14001;SDS011;7076;51.280;12.584;2024-02-15T15:30:43;3.40;;;2.10;;
14001;SDS011;7076;51.280;12.584;2024-02-15T15:35:50;1.85;;;1.75;;
14001;SDS011;7076;51.280;12.584;2024-02-15T15:40:54;2.15;;;1.33;;
14001;SDS011;7076;51.280;12.584;2024-02-15T15:45:57;1.35;;;1.20;;
14001;SDS011;7076;51.280;12.584;2024-02-15T15:51:00;4.45;;;3.95;;
14001;SDS011;7076;51.280;12.584;2024-02-15T15:56:08;3.45;;;3.03;;
14001;SDS011;7076;51.280;12.584;2024-02-15T16:01:11;1.40;;;1.30;;
14001;SDS011;7076;51.280;12.584;2024-02-15T16:06:15;0.98;;;0.90;;
14001;SDS011;7076;51.280;12.584;2024-02-15T16:11:20;1.42;;;1.10;;
14001;SDS011;7076;51.280;12.584;2024-02-15T16:16:23;0.95;;;0.85;;
14001;SDS011;7076;51.280;12.584;2024-02-15T16:21:26;1.05;;;1.00;;
14001;SDS011;7076;51.280;12.584;2024-02-15T16:26:30;1.08;;;0.93;;
14001;SDS011;7076;51.280;12.584;2024-02-15T16:31:35;1.52;;;1.17;;
14001;SDS011;7076;51.280;12.584;2024-02-15T16:36:38;1.20;;;1.10;;
14001;SDS011;7076;51.280;12.584;2024-02-15T16:41:43;1.45;;;1.00;;
14001;SDS011;7076;51.280;12.584;2024-02-15T16:46:48;1.20;;;1.10;;
14001;SDS011;7076;51.280;12.584;2024-02-15T16:51:51;1.40;;;1.05;;
14001;SDS011;7076;51.280;12.584;2024-02-15T16:56:55;1.83;;;1.15;;
14001;SDS011;7076;51.280;12.584;2024-02-15T17:02:15;4.78;;;3.75;;
14001;SDS011;7076;51.280;12.584;2024-02-15T17:07:18;1.40;;;1.30;;
14001;SDS011;7076;51.280;12.584;2024-02-15T17:12:23;1.40;;;1.30;;
14001;SDS011;7076;51.280;12.584;2024-02-15T17:17:26;2.10;;;1.90;;
14001;SDS011;7076;51.280;12.584;2024-02-15T17:22:29;3.17;;;1.67;;
14001;SDS011;7076;51.280;12.584;2024-02-15T17:27:33;2.88;;;2.10;;
14001;SDS011;7076;51.280;12.584;2024-02-15T17:32:37;2.50;;;1.92;;
14001;SDS011;7076;51.280;12.584;2024-02-15T17:37:43;2.50;;;1.60;;
14001;SDS011;7076;51.280;12.584;2024-02-15T17:42:47;1.85;;;1.42;;
14001;SDS011;7076;51.280;12.584;2024-02-15T17:47:50;2.15;;;1.83;;
14001;SDS011;7076;51.280;12.584;2024-02-15T17:52:53;2.97;;;2.45;;
14001;SDS011;7076;51.280;12.584;2024-02-15T17:57:57;2.80;;;2.20;;
14001;SDS011;7076;51.280;12.584;2024-02-15T18:03:02;3.28;;;1.95;;
14001;SDS011;7076;51.280;12.584;2024-02-15T18:08:06;3.60;;;2.40;;
14001;SDS011;7076;51.280;12.584;2024-02-15T18:13:11;2.35;;;2.00;;
14001;SDS011;7076;51.280;12.584;2024-02-15T18:18:15;5.25;;;1.83;;
14001;SDS011;7076;51.280;12.584;2024-02-15T18:23:18;2.58;;;2.28;;
14001;SDS011;7076;51.280;12.584;2024-02-15T18:28:23;3.08;;;2.45;;
14001;SDS011;7076;51.280;12.584;2024-02-15T18:34:19;2.88;;;2.58;;
14001;SDS011;7076;51.280;12.584;2024-02-15T18:39:22;2.97;;;2.00;;
14001;SDS011;7076;51.280;12.584;2024-02-15T18:44:31;2.78;;;2.00;;
14001;SDS011;7076;51.280;12.584;2024-02-15T18:49:35;3.90;;;1.90;;
14001;SDS011;7076;51.280;12.584;2024-02-15T18:54:46;3.15;;;2.10;;
14001;SDS011;7076;51.280;12.584;2024-02-15T18:59:51;3.25;;;2.08;;
14001;SDS011;7076;51.280;12.584;2024-02-15T19:04:54;3.22;;;2.13;;
14001;SDS011;7076;51.280;12.584;2024-02-15T19:09:57;2.30;;;1.83;;
14001;SDS011;7076;51.280;12.584;2024-02-15T19:15:02;5.00;;;2.97;;
14001;SDS011;7076;51.280;12.584;2024-02-15T19:20:08;5.47;;;3.42;;
14001;SDS011;7076;51.280;12.584;2024-02-15T19:25:12;3.33;;;2.50;;
14001;SDS011;7076;51.280;12.584;2024-02-15T19:30:21;3.45;;;2.60;;
14001;SDS011;7076;51.280;12.584;2024-02-15T19:35:24;4.20;;;3.15;;
14001;SDS011;7076;51.280;12.584;2024-02-15T19:40:28;3.70;;;2.50;;
14001;SDS011;7076;51.280;12.584;2024-02-15T19:45:32;4.50;;;3.17;;
14001;SDS011;7076;51.280;12.584;2024-02-15T19:50:40;3.55;;;2.97;;
14001;SDS011;7076;51.280;12.584;2024-02-15T19:55:43;4.20;;;2.72;;
14001;SDS011;7076;51.280;12.584;2024-02-15T20:00:47;3.42;;;2.67;;
14001;SDS011;7076;51.280;12.584;2024-02-15T20:05:50;2.42;;;2.22;;
14001;SDS011;7076;51.280;12.584;2024-02-15T20:10:54;3.80;;;2.75;;
14001;SDS011;7076;51.280;12.584;2024-02-15T20:15:59;3.03;;;2.55;;
14001;SDS011;7076;51.280;12.584;2024-02-15T20:21:04;3.55;;;2.88;;
14001;SDS011;7076;51.280;12.584;2024-02-15T20:26:11;4.40;;;3.20;;
14001;SDS011;7076;51.280;12.584;2024-02-15T20:31:16;5.45;;;3.25;;
14001;SDS011;7076;51.280;12.584;2024-02-15T20:36:18;4.93;;;2.88;;
14001;SDS011;7076;51.280;12.584;2024-02-15T20:41:22;2.67;;;2.42;;
14001;SDS011;7076;51.280;12.584;2024-02-15T20:46:29;2.70;;;2.50;;
14001;SDS011;7076;51.280;12.584;2024-02-15T20:51:34;2.95;;;2.65;;
14001;SDS011;7076;51.280;12.584;2024-02-15T20:56:37;4.03;;;2.75;;
14001;SDS011;7076;51.280;12.584;2024-02-15T21:01:43;4.10;;;2.40;;
14001;SDS011;7076;51.280;12.584;2024-02-15T21:06:46;4.30;;;2.80;;
14001;SDS011;7076;51.280;12.584;2024-02-15T21:11:49;4.15;;;2.80;;
14001;SDS011;7076;51.280;12.584;2024-02-15T21:16:53;4.30;;;2.80;;
14001;SDS011;7076;51.280;12.584;2024-02-15T21:21:56;4.75;;;3.28;;
14001;SDS011;7076;51.280;12.584;2024-02-15T21:26:59;4.07;;;2.90;;
14001;SDS011;7076;51.280;12.584;2024-02-15T21:32:04;4.05;;;3.10;;
14001;SDS011;7076;51.280;12.584;2024-02-15T21:37:07;5.28;;;2.72;;
14001;SDS011;7076;51.280;12.584;2024-02-15T21:42:13;3.85;;;3.08;;
14001;SDS011;7076;51.280;12.584;2024-02-15T21:47:17;3.63;;;2.95;;
14001;SDS011;7076;51.280;12.584;2024-02-15T21:52:20;3.85;;;2.13;;
14001;SDS011;7076;51.280;12.584;2024-02-15T21:57:23;3.15;;;2.83;;
14001;SDS011;7076;51.280;12.584;2024-02-15T22:02:27;4.30;;;3.28;;
14001;SDS011;7076;51.280;12.584;2024-02-15T22:07:30;3.92;;;3.13;;
14001;SDS011;7076;51.280;12.584;2024-02-15T22:12:33;4.88;;;3.72;;
14001;SDS011;7076;51.280;12.584;2024-02-15T22:17:37;4.00;;;3.38;;
14001;SDS011;7076;51.280;12.584;2024-02-15T22:22:41;3.65;;;3.03;;
14001;SDS011;7076;51.280;12.584;2024-02-15T22:27:45;7.38;;;3.45;;
14001;SDS011;7076;51.280;12.584;2024-02-15T22:32:49;3.50;;;3.20;;
14001;SDS011;7076;51.280;12.584;2024-02-15T22:37:53;3.67;;;3.03;;
14001;SDS011;7076;51.280;12.584;2024-02-15T22:42:56;4.10;;;3.17;;
14001;SDS011;7076;51.280;12.584;2024-02-15T22:48:00;7.80;;;3.30;;
14001;SDS011;7076;51.280;12.584;2024-02-15T22:53:03;4.30;;;3.15;;
14001;SDS011;7076;51.280;12.584;2024-02-15T22:58:06;3.88;;;3.35;;
14001;SDS011;7076;51.280;12.584;2024-02-15T23:03:11;4.90;;;3.03;;
14001;SDS011;7076;51.280;12.584;2024-02-15T23:08:14;6.25;;;2.90;;
14001;SDS011;7076;51.280;12.584;2024-02-15T23:13:17;3.90;;;2.40;;
14001;SDS011;7076;51.280;12.584;2024-02-15T23:18:21;3.13;;;2.83;;
14001;SDS011;7076;51.280;12.584;2024-02-15T23:23:24;3.40;;;3.10;;
14001;SDS011;7076;51.280;12.584;2024-02-15T23:28:27;3.22;;;2.90;;
14001;SDS011;7076;51.280;12.584;2024-02-15T23:33:31;5.43;;;2.85;;
14001;SDS011;7076;51.280;12.584;2024-02-15T23:38:34;5.30;;;2.78;;
14001;SDS011;7076;51.280;12.584;2024-02-15T23:43:54;3.60;;;2.53;;
14001;SDS011;7076;51.280;12.584;2024-02-15T23:48:59;2.90;;;2.35;;
14001;SDS011;7076;51.280;12.584;2024-02-15T23:54:02;3.63;;;2.63;;
14001;SDS011;7076;51.280;12.584;2024-02-15T23:59:05;4.05;;;2.40;;
